sensor_id;sensor_type;location;lat;lon;timestamp;pressure;altitude;pressure_sealevel;temperature;humidity
18819;BME280;9537;45.594;9.294;2023-10-08T00:00:50;100477.41;;;17.83;89.58
18819;BME280;9537;45.594;9.294;2023-10-08T00:01:54;100484.59;;;17.82;89.50
18819;BME280;9537;45.594;9.294;2023-10-08T00:02:56;100489.94;;;17.82;89.35
18819;BME280;9537;45.594;9.294;2023-10-08T00:03:57;100488.94;;;17.83;89.22
18819;BME280;9537;45.594;9.294;2023-10-08T00:05:01;100481.91;;;17.82;88.67
18819;BME280;9537;45.594;9.294;2023-10-08T00:06:03;100479.00;;;17.77;88.68
18819;BME280;9537;45.594;9.294;2023-10-08T00:07:12;100478.56;;;17.73;88.84
18819;BME280;9537;45.594;9.294;2023-10-08T00:08:13;100477.75;;;17.73;88.80
18819;BME280;9537;45.594;9.294;2023-10-08T00:09:17;100475.47;;;17.70;88.67
18819;BME280;9537;45.594;9.294;2023-10-08T00:10:21;100483.50;;;17.70;88.71
18819;BME280;9537;45.594;9.294;2023-10-08T00:11:27;100482.03;;;17.67;88.98
18819;BME280;9537;45.594;9.294;2023-10-08T00:12:29;100480.19;;;17.68;89.02
18819;BME280;9537;45.594;9.294;2023-10-08T00:13:33;100484.53;;;17.69;88.77
18819;BME280;9537;45.594;9.294;2023-10-08T00:14:40;100478.16;;;17.70;88.84
18819;BME280;9537;45.594;9.294;2023-10-08T00:15:45;100482.84;;;17.68;88.60
18819;BME280;9537;45.594;9.294;2023-10-08T00:16:52;100475.06;;;17.66;88.75
18819;BME280;9537;45.594;9.294;2023-10-08T00:17:54;100483.91;;;17.67;88.72
18819;BME280;9537;45.594;9.294;2023-10-08T00:18:55;100485.75;;;17.66;88.63
18819;BME280;9537;45.594;9.294;2023-10-08T00:20:00;100482.25;;;17.66;88.64
18819;BME280;9537;45.594;9.294;2023-10-08T00:21:03;100479.97;;;17.63;88.77
18819;BME280;9537;45.594;9.294;2023-10-08T00:22:16;100482.66;;;17.63;88.45
18819;BME280;9537;45.594;9.294;2023-10-08T00:23:18;100485.94;;;17.65;88.76
18819;BME280;9537;45.594;9.294;2023-10-08T00:24:19;100483.47;;;17.63;88.58
18819;BME280;9537;45.594;9.294;2023-10-08T00:25:27;100477.31;;;17.63;88.60
18819;BME280;9537;45.594;9.294;2023-10-08T00:26:31;100481.38;;;17.59;88.48
18819;BME280;9537;45.594;9.294;2023-10-08T00:27:32;100478.94;;;17.57;88.65
18819;BME280;9537;45.594;9.294;2023-10-08T00:28:40;100472.13;;;17.54;88.44
18819;BME280;9537;45.594;9.294;2023-10-08T00:29:42;100478.47;;;17.53;88.55
18819;BME280;9537;45.594;9.294;2023-10-08T00:30:45;100480.75;;;17.56;88.81
18819;BME280;9537;45.594;9.294;2023-10-08T00:31:47;100475.81;;;17.53;88.84
18819;BME280;9537;45.594;9.294;2023-10-08T00:32:50;100478.47;;;17.53;89.03
18819;BME280;9537;45.594;9.294;2023-10-08T00:33:52;100471.50;;;17.52;88.95
18819;BME280;9537;45.594;9.294;2023-10-08T00:34:54;100476.41;;;17.49;89.13
18819;BME280;9537;45.594;9.294;2023-10-08T00:35:56;100480.31;;;17.46;89.32
18819;BME280;9537;45.594;9.294;2023-10-08T00:36:57;100471.47;;;17.46;89.45
18819;BME280;9537;45.594;9.294;2023-10-08T00:37:58;100465.91;;;17.47;89.22
18819;BME280;9537;45.594;9.294;2023-10-08T00:39:03;100466.56;;;17.49;89.02
18819;BME280;9537;45.594;9.294;2023-10-08T00:40:09;100465.34;;;17.52;88.85
18819;BME280;9537;45.594;9.294;2023-10-08T00:41:13;100464.53;;;17.51;88.91
18819;BME280;9537;45.594;9.294;2023-10-08T00:42:15;100462.25;;;17.48;89.25
18819;BME280;9537;45.594;9.294;2023-10-08T00:43:30;100452.56;;;17.47;88.95
18819;BME280;9537;45.594;9.294;2023-10-08T00:44:34;100452.97;;;17.44;89.14
18819;BME280;9537;45.594;9.294;2023-10-08T00:45:41;100460.75;;;17.39;89.41
18819;BME280;9537;45.594;9.294;2023-10-08T00:46:44;100455.22;;;17.41;89.41
18819;BME280;9537;45.594;9.294;2023-10-08T00:47:48;100455.84;;;17.43;89.53
18819;BME280;9537;45.594;9.294;2023-10-08T00:48:53;100455.00;;;17.42;89.92
18819;BME280;9537;45.594;9.294;2023-10-08T00:49:55;100456.66;;;17.43;89.66
18819;BME280;9537;45.594;9.294;2023-10-08T00:51:05;100447.84;;;17.43;89.58
18819;BME280;9537;45.594;9.294;2023-10-08T00:52:26;100454.00;;;17.43;89.62
18819;BME280;9537;45.594;9.294;2023-10-08T00:53:30;100447.63;;;17.44;89.42
18819;BME280;9537;45.594;9.294;2023-10-08T00:54:40;100458.94;;;17.46;89.66
18819;BME280;9537;45.594;9.294;2023-10-08T00:55:52;100457.91;;;17.47;89.65
18819;BME280;9537;45.594;9.294;2023-10-08T00:56:54;100453.59;;;17.46;89.33
18819;BME280;9537;45.594;9.294;2023-10-08T00:57:58;100452.38;;;17.49;89.02
18819;BME280;9537;45.594;9.294;2023-10-08T00:59:08;100452.56;;;17.47;88.83
18819;BME280;9537;45.594;9.294;2023-10-08T01:00:15;100442.28;;;17.44;88.61
18819;BME280;9537;45.594;9.294;2023-10-08T01:01:22;100448.66;;;17.43;88.54
18819;BME280;9537;45.594;9.294;2023-10-08T01:02:25;100449.25;;;17.39;88.39
18819;BME280;9537;45.594;9.294;2023-10-08T01:03:43;100443.91;;;17.39;88.34
18819;BME280;9537;45.594;9.294;2023-10-08T01:04:45;100443.28;;;17.37;88.46
18819;BME280;9537;45.594;9.294;2023-10-08T01:05:46;100440.38;;;17.31;88.26
18819;BME280;9537;45.594;9.294;2023-10-08T01:06:47;100435.22;;;17.30;87.83
18819;BME280;9537;45.594;9.294;2023-10-08T01:07:52;100434.81;;;17.26;88.22
18819;BME280;9537;45.594;9.294;2023-10-08T01:08:53;100432.78;;;17.28;87.90
18819;BME280;9537;45.594;9.294;2023-10-08T01:09:59;100438.13;;;17.28;87.86
18819;BME280;9537;45.594;9.294;2023-10-08T01:11:16;100434.81;;;17.26;88.14
18819;BME280;9537;45.594;9.294;2023-10-08T01:12:19;100435.00;;;17.25;88.05
18819;BME280;9537;45.594;9.294;2023-10-08T01:13:23;100432.94;;;17.20;88.28
18819;BME280;9537;45.594;9.294;2023-10-08T01:14:27;100433.13;;;17.19;88.77
18819;BME280;9537;45.594;9.294;2023-10-08T01:15:34;100432.47;;;17.17;88.75
18819;BME280;9537;45.594;9.294;2023-10-08T01:16:37;100438.47;;;17.19;88.98
18819;BME280;9537;45.594;9.294;2023-10-08T01:17:39;100428.59;;;17.19;88.85
18819;BME280;9537;45.594;9.294;2023-10-08T01:18:49;100437.47;;;17.20;89.01
18819;BME280;9537;45.594;9.294;2023-10-08T01:19:50;100437.25;;;17.21;88.86
18819;BME280;9537;45.594;9.294;2023-10-08T01:20:56;100439.09;;;17.21;88.88
18819;BME280;9537;45.594;9.294;2023-10-08T01:22:06;100427.38;;;17.22;88.90
18819;BME280;9537;45.594;9.294;2023-10-08T01:23:10;100438.88;;;17.22;88.92
18819;BME280;9537;45.594;9.294;2023-10-08T01:24:13;100430.06;;;17.22;88.70
18819;BME280;9537;45.594;9.294;2023-10-08T01:25:17;100431.09;;;17.21;88.74
18819;BME280;9537;45.594;9.294;2023-10-08T01:26:24;100433.94;;;17.19;88.78
18819;BME280;9537;45.594;9.294;2023-10-08T01:27:30;100433.13;;;17.19;88.25
18819;BME280;9537;45.594;9.294;2023-10-08T01:28:34;100427.53;;;17.14;88.37
18819;BME280;9537;45.594;9.294;2023-10-08T01:29:36;100431.88;;;17.15;88.51
18819;BME280;9537;45.594;9.294;2023-10-08T01:30:37;100429.38;;;17.13;88.38
18819;BME280;9537;45.594;9.294;2023-10-08T01:31:42;100431.25;;;17.13;88.53
18819;BME280;9537;45.594;9.294;2023-10-08T01:32:42;100431.25;;;17.13;88.45
18819;BME280;9537;45.594;9.294;2023-10-08T01:33:44;100417.91;;;17.13;88.53
18819;BME280;9537;45.594;9.294;2023-10-08T01:34:50;100415.41;;;17.11;88.46
18819;BME280;9537;45.594;9.294;2023-10-08T01:35:57;100422.59;;;17.10;88.42
18819;BME280;9537;45.594;9.294;2023-10-08T01:37:02;100417.06;;;17.12;88.34
18819;BME280;9537;45.594;9.294;2023-10-08T01:38:10;100423.22;;;17.13;88.03
18819;BME280;9537;45.594;9.294;2023-10-08T01:39:13;100418.72;;;17.13;88.15
18819;BME280;9537;45.594;9.294;2023-10-08T01:40:16;100416.25;;;17.11;88.07
18819;BME280;9537;45.594;9.294;2023-10-08T01:41:18;100416.03;;;17.06;88.23
18819;BME280;9537;45.594;9.294;2023-10-08T01:42:19;100413.34;;;17.06;88.55
18819;BME280;9537;45.594;9.294;2023-10-08T01:43:21;100409.66;;;17.07;88.74
18819;BME280;9537;45.594;9.294;2023-10-08T01:44:22;100417.06;;;17.05;89.08
18819;BME280;9537;45.594;9.294;2023-10-08T01:45:24;100413.34;;;17.06;89.24
18819;BME280;9537;45.594;9.294;2023-10-08T01:46:25;100419.50;;;17.07;89.23
18819;BME280;9537;45.594;9.294;2023-10-08T01:47:26;100422.19;;;17.07;89.26
18819;BME280;9537;45.594;9.294;2023-10-08T01:48:30;100411.50;;;17.07;89.46
18819;BME280;9537;45.594;9.294;2023-10-08T01:49:38;100412.94;;;17.09;89.52
18819;BME280;9537;45.594;9.294;2023-10-08T01:50:40;100415.00;;;17.07;89.59
18819;BME280;9537;45.594;9.294;2023-10-08T01:51:41;100419.09;;;17.10;89.50
18819;BME280;9537;45.594;9.294;2023-10-08T01:52:47;100416.19;;;17.05;89.96
18819;BME280;9537;45.594;9.294;2023-10-08T01:53:50;100417.06;;;17.05;89.97
18819;BME280;9537;45.594;9.294;2023-10-08T01:54:51;100414.38;;;17.05;89.94
18819;BME280;9537;45.594;9.294;2023-10-08T01:55:54;100408.00;;;17.06;89.90
18819;BME280;9537;45.594;9.294;2023-10-08T01:56:55;100415.00;;;17.07;90.00
18819;BME280;9537;45.594;9.294;2023-10-08T01:57:57;100417.47;;;17.09;89.95
18819;BME280;9537;45.594;9.294;2023-10-08T01:58:58;100407.78;;;17.08;89.79
18819;BME280;9537;45.594;9.294;2023-10-08T02:00:01;100410.06;;;17.11;89.97
18819;BME280;9537;45.594;9.294;2023-10-08T02:01:01;100409.88;;;17.13;89.67
18819;BME280;9537;45.594;9.294;2023-10-08T02:02:12;100409.25;;;17.10;89.28
18819;BME280;9537;45.594;9.294;2023-10-08T02:03:16;100402.06;;;17.11;88.75
18819;BME280;9537;45.594;9.294;2023-10-08T02:04:19;100399.59;;;17.09;88.02
18819;BME280;9537;45.594;9.294;2023-10-08T02:05:21;100403.50;;;17.07;88.00
18819;BME280;9537;45.594;9.294;2023-10-08T02:06:23;100409.22;;;17.04;87.84
18819;BME280;9537;45.594;9.294;2023-10-08T02:07:24;100407.13;;;16.99;87.81
18819;BME280;9537;45.594;9.294;2023-10-08T02:08:26;100402.81;;;16.98;88.02
18819;BME280;9537;45.594;9.294;2023-10-08T02:09:28;100402.00;;;16.98;88.20
18819;BME280;9537;45.594;9.294;2023-10-08T02:10:29;100400.16;;;16.98;88.02
18819;BME280;9537;45.594;9.294;2023-10-08T02:11:30;100403.84;;;16.97;88.03
18819;BME280;9537;45.594;9.294;2023-10-08T02:12:32;100402.19;;;16.96;87.62
18819;BME280;9537;45.594;9.294;2023-10-08T02:13:33;100403.22;;;16.95;88.02
18819;BME280;9537;45.594;9.294;2023-10-08T02:14:35;100396.25;;;16.94;88.14
18819;BME280;9537;45.594;9.294;2023-10-08T02:15:36;100405.88;;;16.95;88.42
18819;BME280;9537;45.594;9.294;2023-10-08T02:16:39;100398.53;;;16.97;88.54
18819;BME280;9537;45.594;9.294;2023-10-08T02:17:40;100404.69;;;16.98;88.55
18819;BME280;9537;45.594;9.294;2023-10-08T02:18:43;100396.84;;;16.96;88.58
18819;BME280;9537;45.594;9.294;2023-10-08T02:19:44;100398.69;;;16.96;88.75
18819;BME280;9537;45.594;9.294;2023-10-08T02:20:46;100398.06;;;16.94;88.93
18819;BME280;9537;45.594;9.294;2023-10-08T02:21:48;100410.41;;;16.95;88.46
18819;BME280;9537;45.594;9.294;2023-10-08T02:22:50;100403.00;;;16.97;88.30
18819;BME280;9537;45.594;9.294;2023-10-08T02:23:51;100402.59;;;16.93;88.41
18819;BME280;9537;45.594;9.294;2023-10-08T02:24:54;100406.28;;;16.92;88.34
18819;BME280;9537;45.594;9.294;2023-10-08T02:25:55;100406.69;;;16.89;88.42
18819;BME280;9537;45.594;9.294;2023-10-08T02:26:58;100403.81;;;16.91;88.05
18819;BME280;9537;45.594;9.294;2023-10-08T02:28:01;100404.44;;;16.93;87.48
18819;BME280;9537;45.594;9.294;2023-10-08T02:29:03;100404.63;;;16.91;87.12
18819;BME280;9537;45.594;9.294;2023-10-08T02:30:11;100400.53;;;16.88;87.24
18819;BME280;9537;45.594;9.294;2023-10-08T02:31:13;100392.69;;;16.87;87.34
18819;BME280;9537;45.594;9.294;2023-10-08T02:32:13;100400.06;;;16.85;87.59
18819;BME280;9537;45.594;9.294;2023-10-08T02:33:15;100396.59;;;16.84;87.75
18819;BME280;9537;45.594;9.294;2023-10-08T02:34:16;100397.41;;;16.85;87.85
18819;BME280;9537;45.594;9.294;2023-10-08T02:35:20;100390.59;;;16.82;88.42
18819;BME280;9537;45.594;9.294;2023-10-08T02:36:20;100394.31;;;16.81;88.66
18819;BME280;9537;45.594;9.294;2023-10-08T02:37:22;100401.66;;;16.79;88.80
18819;BME280;9537;45.594;9.294;2023-10-08T02:38:23;100394.53;;;16.80;89.20
18819;BME280;9537;45.594;9.294;2023-10-08T02:39:25;100392.84;;;16.79;89.58
18819;BME280;9537;45.594;9.294;2023-10-08T02:40:27;100390.00;;;16.80;89.77
18819;BME280;9537;45.594;9.294;2023-10-08T02:41:30;100393.28;;;16.82;89.72
18819;BME280;9537;45.594;9.294;2023-10-08T02:42:32;100390.81;;;16.81;89.75
18819;BME280;9537;45.594;9.294;2023-10-08T02:43:34;100393.88;;;16.78;89.99
18819;BME280;9537;45.594;9.294;2023-10-08T02:44:38;100379.88;;;16.76;90.06
18819;BME280;9537;45.594;9.294;2023-10-08T02:45:42;100385.66;;;16.79;89.82
18819;BME280;9537;45.594;9.294;2023-10-08T02:46:49;100391.84;;;16.80;89.59
18819;BME280;9537;45.594;9.294;2023-10-08T02:47:52;100389.38;;;16.78;89.22
18819;BME280;9537;45.594;9.294;2023-10-08T02:48:53;100389.38;;;16.78;89.01
18819;BME280;9537;45.594;9.294;2023-10-08T02:49:55;100382.38;;;16.77;88.91
18819;BME280;9537;45.594;9.294;2023-10-08T02:50:55;100383.22;;;16.78;88.79
18819;BME280;9537;45.594;9.294;2023-10-08T02:52:07;100391.41;;;16.76;88.77
18819;BME280;9537;45.594;9.294;2023-10-08T02:53:09;100388.91;;;16.75;88.47
18819;BME280;9537;45.594;9.294;2023-10-08T02:54:11;100386.41;;;16.73;88.49
18819;BME280;9537;45.594;9.294;2023-10-08T02:55:17;100391.16;;;16.71;88.27
18819;BME280;9537;45.594;9.294;2023-10-08T02:56:30;100388.66;;;16.70;88.22
18819;BME280;9537;45.594;9.294;2023-10-08T02:57:32;100380.84;;;16.68;87.96
18819;BME280;9537;45.594;9.294;2023-10-08T02:58:35;100379.19;;;16.67;88.09
18819;BME280;9537;45.594;9.294;2023-10-08T02:59:36;100382.25;;;16.64;88.06
18819;BME280;9537;45.594;9.294;2023-10-08T03:00:41;100388.81;;;16.61;88.04
18819;BME280;9537;45.594;9.294;2023-10-08T03:01:42;100380.16;;;16.59;87.85
18819;BME280;9537;45.594;9.294;2023-10-08T03:02:44;100386.75;;;16.57;87.46
18819;BME280;9537;45.594;9.294;2023-10-08T03:03:46;100384.25;;;16.55;87.31
18819;BME280;9537;45.594;9.294;2023-10-08T03:04:49;100376.06;;;16.57;87.22
18819;BME280;9537;45.594;9.294;2023-10-08T03:05:52;100383.44;;;16.55;87.25
18819;BME280;9537;45.594;9.294;2023-10-08T03:06:57;100385.47;;;16.53;87.83
18819;BME280;9537;45.594;9.294;2023-10-08T03:07:57;100389.97;;;16.52;87.81
18819;BME280;9537;45.594;9.294;2023-10-08T03:08:59;100387.94;;;16.54;87.83
18819;BME280;9537;45.594;9.294;2023-10-08T03:10:04;100387.94;;;16.54;88.00
18819;BME280;9537;45.594;9.294;2023-10-08T03:11:09;100387.56;;;16.57;87.92
18819;BME280;9537;45.594;9.294;2023-10-08T03:12:18;100383.03;;;16.58;88.03
18819;BME280;9537;45.594;9.294;2023-10-08T03:13:25;100378.91;;;16.55;88.14
18819;BME280;9537;45.594;9.294;2023-10-08T03:14:26;100374.22;;;16.57;88.03
18819;BME280;9537;45.594;9.294;2023-10-08T03:15:42;100376.06;;;16.57;87.71
18819;BME280;9537;45.594;9.294;2023-10-08T03:16:48;100373.19;;;16.58;87.73
18819;BME280;9537;45.594;9.294;2023-10-08T03:17:50;100372.38;;;16.58;87.60
18819;BME280;9537;45.594;9.294;2023-10-08T03:18:51;100370.66;;;16.50;87.68
18819;BME280;9537;45.594;9.294;2023-10-08T03:19:55;100371.50;;;16.51;87.63
18819;BME280;9537;45.594;9.294;2023-10-08T03:21:02;100372.69;;;16.48;87.52
18819;BME280;9537;45.594;9.294;2023-10-08T03:22:05;100378.03;;;16.48;87.64
18819;BME280;9537;45.594;9.294;2023-10-08T03:23:06;100374.75;;;16.46;87.78
18819;BME280;9537;45.594;9.294;2023-10-08T03:24:13;100377.59;;;16.44;88.15
18819;BME280;9537;45.594;9.294;2023-10-08T03:25:29;100382.94;;;16.44;88.67
18819;BME280;9537;45.594;9.294;2023-10-08T03:26:31;100383.75;;;16.45;88.72
18819;BME280;9537;45.594;9.294;2023-10-08T03:27:37;100384.13;;;16.42;88.67
18819;BME280;9537;45.594;9.294;2023-10-08T03:28:42;100390.13;;;16.44;88.83
18819;BME280;9537;45.594;9.294;2023-10-08T03:29:44;100389.09;;;16.45;88.90
18819;BME280;9537;45.594;9.294;2023-10-08T03:30:44;100381.09;;;16.45;88.62
18819;BME280;9537;45.594;9.294;2023-10-08T03:31:51;100374.75;;;16.46;88.29
18819;BME280;9537;45.594;9.294;2023-10-08T03:32:55;100381.72;;;16.47;88.02
18819;BME280;9537;45.594;9.294;2023-10-08T03:33:56;100389.72;;;16.47;87.79
18819;BME280;9537;45.594;9.294;2023-10-08T03:34:58;100381.72;;;16.47;87.66
18819;BME280;9537;45.594;9.294;2023-10-08T03:36:00;100387.25;;;16.46;87.31
18819;BME280;9537;45.594;9.294;2023-10-08T03:37:04;100383.97;;;16.43;87.09
18819;BME280;9537;45.594;9.294;2023-10-08T03:38:07;100379.66;;;16.42;86.98
18819;BME280;9537;45.594;9.294;2023-10-08T03:39:19;100381.69;;;16.40;86.99
18819;BME280;9537;45.594;9.294;2023-10-08T03:40:21;100376.09;;;16.35;87.20
18819;BME280;9537;45.594;9.294;2023-10-08T03:41:26;100376.28;;;16.34;87.26
18819;BME280;9537;45.594;9.294;2023-10-08T03:42:30;100375.03;;;16.30;87.54
18819;BME280;9537;45.594;9.294;2023-10-08T03:43:41;100379.34;;;16.31;87.54
18819;BME280;9537;45.594;9.294;2023-10-08T03:44:53;100380.19;;;16.31;87.42
18819;BME280;9537;45.594;9.294;2023-10-08T03:45:56;100374.00;;;16.31;87.70
18819;BME280;9537;45.594;9.294;2023-10-08T03:46:59;100376.06;;;16.29;87.65
18819;BME280;9537;45.594;9.294;2023-10-08T03:48:01;100374.00;;;16.31;87.88
18819;BME280;9537;45.594;9.294;2023-10-08T03:49:09;100375.84;;;16.30;87.94
18819;BME280;9537;45.594;9.294;2023-10-08T03:50:15;100375.66;;;16.32;87.80
18819;BME280;9537;45.594;9.294;2023-10-08T03:51:18;100377.50;;;16.31;88.18
18819;BME280;9537;45.594;9.294;2023-10-08T03:52:21;100374.84;;;16.31;88.09
18819;BME280;9537;45.594;9.294;2023-10-08T03:53:25;100374.63;;;16.33;88.28
18819;BME280;9537;45.594;9.294;2023-10-08T03:54:26;100373.38;;;16.29;87.87
18819;BME280;9537;45.594;9.294;2023-10-08T03:55:36;100369.25;;;16.26;87.73
18819;BME280;9537;45.594;9.294;2023-10-08T03:56:39;100373.78;;;16.26;87.64
18819;BME280;9537;45.594;9.294;2023-10-08T03:57:45;100378.47;;;16.24;87.69
18819;BME280;9537;45.594;9.294;2023-10-08T03:58:51;100385.00;;;16.21;88.02
18819;BME280;9537;45.594;9.294;2023-10-08T03:59:54;100387.66;;;16.21;88.10
18819;BME280;9537;45.594;9.294;2023-10-08T04:00:59;100377.44;;;16.25;88.04
18819;BME280;9537;45.594;9.294;2023-10-08T04:02:08;100379.09;;;16.26;88.20
18819;BME280;9537;45.594;9.294;2023-10-08T04:03:14;100379.94;;;16.26;88.46
18819;BME280;9537;45.594;9.294;2023-10-08T04:04:23;100383.41;;;16.27;88.56
18819;BME280;9537;45.594;9.294;2023-10-08T04:05:31;100385.91;;;16.28;88.75
18819;BME280;9537;45.594;9.294;2023-10-08T04:06:44;100381.38;;;16.29;88.60
18819;BME280;9537;45.594;9.294;2023-10-08T04:07:49;100380.56;;;16.28;88.44
18819;BME280;9537;45.594;9.294;2023-10-08T04:09:17;100379.72;;;16.28;88.05
18819;BME280;9537;45.594;9.294;2023-10-08T04:10:24;100381.13;;;16.24;87.90
18819;BME280;9537;45.594;9.294;2023-10-08T04:11:40;100378.84;;;16.20;87.68
18819;BME280;9537;45.594;9.294;2023-10-08T04:12:54;100380.88;;;16.18;87.56
18819;BME280;9537;45.594;9.294;2023-10-08T04:13:57;100370.41;;;16.17;87.36
18819;BME280;9537;45.594;9.294;2023-10-08T04:15:01;100377.56;;;16.16;87.53
18819;BME280;9537;45.594;9.294;2023-10-08T04:16:01;100383.09;;;16.15;87.65
18819;BME280;9537;45.594;9.294;2023-10-08T04:17:05;100380.63;;;16.13;87.44
18819;BME280;9537;45.594;9.294;2023-10-08T04:18:10;100377.13;;;16.13;87.30
18819;BME280;9537;45.594;9.294;2023-10-08T04:19:13;100369.53;;;16.10;87.47
18819;BME280;9537;45.594;9.294;2023-10-08T04:20:18;100375.66;;;16.10;87.76
18819;BME280;9537;45.594;9.294;2023-10-08T04:21:33;100372.75;;;16.05;87.88
18819;BME280;9537;45.594;9.294;2023-10-08T04:22:34;100375.25;;;16.07;87.59
18819;BME280;9537;45.594;9.294;2023-10-08T04:23:37;100378.72;;;16.07;87.15
18819;BME280;9537;45.594;9.294;2023-10-08T04:24:38;100375.41;;;16.05;86.93
18819;BME280;9537;45.594;9.294;2023-10-08T04:25:44;100384.81;;;16.01;86.94
18819;BME280;9537;45.594;9.294;2023-10-08T04:26:45;100384.00;;;16.01;87.21
18819;BME280;9537;45.594;9.294;2023-10-08T04:27:47;100382.34;;;15.99;87.26
18819;BME280;9537;45.594;9.294;2023-10-08T04:28:51;100380.25;;;15.95;88.23
18819;BME280;9537;45.594;9.294;2023-10-08T04:29:59;100377.84;;;16.00;88.88
18819;BME280;9537;45.594;9.294;2023-10-08T04:31:00;100378.06;;;16.05;88.72
18819;BME280;9537;45.594;9.294;2023-10-08T04:32:14;100377.47;;;16.03;88.92
18819;BME280;9537;45.594;9.294;2023-10-08T04:33:23;100371.94;;;16.05;89.06
18819;BME280;9537;45.594;9.294;2023-10-08T04:34:24;100378.94;;;16.06;89.19
18819;BME280;9537;45.594;9.294;2023-10-08T04:35:28;100374.03;;;16.09;88.98
18819;BME280;9537;45.594;9.294;2023-10-08T04:36:28;100372.19;;;16.10;89.21
18819;BME280;9537;45.594;9.294;2023-10-08T04:37:32;100380.00;;;16.11;89.13
18819;BME280;9537;45.594;9.294;2023-10-08T04:38:33;100381.22;;;16.09;88.48
18819;BME280;9537;45.594;9.294;2023-10-08T04:39:38;100376.06;;;16.07;87.89
18819;BME280;9537;45.594;9.294;2023-10-08T04:40:41;100372.41;;;16.08;87.78
18819;BME280;9537;45.594;9.294;2023-10-08T04:41:48;100370.72;;;16.07;87.55
18819;BME280;9537;45.594;9.294;2023-10-08T04:42:54;100374.41;;;16.06;87.50
18819;BME280;9537;45.594;9.294;2023-10-08T04:44:02;100373.59;;;16.06;87.31
18819;BME280;9537;45.594;9.294;2023-10-08T04:45:11;100375.25;;;16.07;87.21
18819;BME280;9537;45.594;9.294;2023-10-08T04:46:13;100381.59;;;16.06;87.23
18819;BME280;9537;45.594;9.294;2023-10-08T04:47:19;100378.28;;;16.04;87.23
18819;BME280;9537;45.594;9.294;2023-10-08T04:48:31;100378.66;;;16.01;87.27
18819;BME280;9537;45.594;9.294;2023-10-08T04:49:33;100372.53;;;16.00;87.19
18819;BME280;9537;45.594;9.294;2023-10-08T04:50:38;100374.38;;;15.99;86.79
18819;BME280;9537;45.594;9.294;2023-10-08T04:51:39;100371.88;;;15.98;86.75
18819;BME280;9537;45.594;9.294;2023-10-08T04:52:44;100376.56;;;15.96;87.08
18819;BME280;9537;45.594;9.294;2023-10-08T04:53:58;100372.25;;;15.95;86.98
18819;BME280;9537;45.594;9.294;2023-10-08T04:55:01;100369.78;;;15.93;86.78
18819;BME280;9537;45.594;9.294;2023-10-08T04:56:14;100369.78;;;15.93;87.01
18819;BME280;9537;45.594;9.294;2023-10-08T04:57:17;100374.50;;;15.91;87.00
18819;BME280;9537;45.594;9.294;2023-10-08T04:58:22;100369.97;;;15.92;87.09
18819;BME280;9537;45.594;9.294;2023-10-08T04:59:33;100369.97;;;15.92;87.07
18819;BME280;9537;45.594;9.294;2023-10-08T05:00:37;100371.19;;;15.89;87.16
18819;BME280;9537;45.594;9.294;2023-10-08T05:01:42;100372.00;;;15.90;87.11
18819;BME280;9537;45.594;9.294;2023-10-08T05:02:49;100372.38;;;15.87;86.61
18819;BME280;9537;45.594;9.294;2023-10-08T05:03:51;100372.38;;;15.87;86.70
18819;BME280;9537;45.594;9.294;2023-10-08T05:05:08;100370.09;;;15.84;87.01
18819;BME280;9537;45.594;9.294;2023-10-08T05:06:23;100365.34;;;15.79;87.56
18819;BME280;9537;45.594;9.294;2023-10-08T05:07:39;100374.59;;;15.83;87.84
18819;BME280;9537;45.594;9.294;2023-10-08T05:08:55;100371.50;;;15.80;87.95
18819;BME280;9537;45.594;9.294;2023-10-08T05:09:59;100375.38;;;15.77;88.10
18819;BME280;9537;45.594;9.294;2023-10-08T05:11:15;100371.50;;;15.80;88.02
18819;BME280;9537;45.594;9.294;2023-10-08T05:12:24;100370.47;;;15.81;87.96
18819;BME280;9537;45.594;9.294;2023-10-08T05:13:35;100374.78;;;15.82;87.76
18819;BME280;9537;45.594;9.294;2023-10-08T05:14:45;100370.09;;;15.84;87.70
18819;BME280;9537;45.594;9.294;2023-10-08T05:15:58;100372.59;;;15.85;87.74
18819;BME280;9537;45.594;9.294;2023-10-08T05:17:29;100366.63;;;15.83;87.93
18819;BME280;9537;45.594;9.294;2023-10-08T05:18:46;100371.75;;;15.85;88.08
18819;BME280;9537;45.594;9.294;2023-10-08T05:20:09;100372.13;;;15.82;88.05
18819;BME280;9537;45.594;9.294;2023-10-08T05:21:20;100366.78;;;15.82;88.01
18819;BME280;9537;45.594;9.294;2023-10-08T05:22:26;100369.06;;;15.85;87.74
18819;BME280;9537;45.594;9.294;2023-10-08T05:23:41;100372.38;;;15.87;87.69
18819;BME280;9537;45.594;9.294;2023-10-08T05:25:09;100377.53;;;15.88;87.65
18819;BME280;9537;45.594;9.294;2023-10-08T05:26:25;100376.13;;;15.92;87.67
18819;BME280;9537;45.594;9.294;2023-10-08T05:27:43;100376.94;;;15.93;87.64
18819;BME280;9537;45.594;9.294;2023-10-08T05:29:10;100369.34;;;15.90;87.31
18819;BME280;9537;45.594;9.294;2023-10-08T05:30:49;100372.22;;;15.88;87.16
18819;BME280;9537;45.594;9.294;2023-10-08T05:31:56;100366.03;;;15.88;87.14
18819;BME280;9537;45.594;9.294;2023-10-08T05:33:12;100367.25;;;15.85;87.07
18819;BME280;9537;45.594;9.294;2023-10-08T05:34:24;100370.28;;;15.82;87.20
18819;BME280;9537;45.594;9.294;2023-10-08T05:35:34;100371.13;;;15.83;87.00
18819;BME280;9537;45.594;9.294;2023-10-08T05:36:50;100371.13;;;15.83;87.28
18819;BME280;9537;45.594;9.294;2023-10-08T05:38:12;100367.81;;;15.81;86.99
18819;BME280;9537;45.594;9.294;2023-10-08T05:39:16;100375.00;;;15.80;87.27
18819;BME280;9537;45.594;9.294;2023-10-08T05:40:30;100368.19;;;15.77;87.06
18819;BME280;9537;45.594;9.294;2023-10-08T05:42:04;100378.22;;;15.75;87.41
18819;BME280;9537;45.594;9.294;2023-10-08T05:43:20;100369.84;;;15.79;87.58
18819;BME280;9537;45.594;9.294;2023-10-08T05:44:34;100373.16;;;15.81;87.36
18819;BME280;9537;45.594;9.294;2023-10-08T05:45:40;100372.50;;;15.79;87.39
18819;BME280;9537;45.594;9.294;2023-10-08T05:46:53;100368.00;;;15.79;87.55
18819;BME280;9537;45.594;9.294;2023-10-08T05:48:30;100375.97;;;15.79;87.50